Time;durP1;ratioP1;P1;durP2;ratioP2;P2;SDS_P1;SDS_P2;PMS_P1;PMS_P2;Temp;Humidity;BMP_temperature;BMP_pressure;BME280_temperature;BME280_humidity;BME280_pressure;Samples;Min_cycle;Max_cycle;Signal;HPM_P1;HPM_P2
2022/10/18 00:00:05;;;;;;;18.15;11.73;;;;;;;;;;5068672;28;20040;-76
2022/10/18 00:02:34;;;;;;;36.85;11.32;;;;;;;;;;5077039;28;20044;-76
2022/10/18 00:05:02;;;;;;;26.95;10.50;;;;;;;;;;5066544;28;20041;-75
2022/10/18 00:07:29;;;;;;;17.05;10.15;;;;;;;;;;5062675;28;20079;-75
2022/10/18 00:09:57;;;;;;;29.83;11.65;;;;;;;;;;5066480;28;20106;-75
2022/10/18 00:12:24;;;;;;;24.55;10.75;;;;;;;;;;5068351;28;20509;-75
2022/10/18 00:14:52;;;;;;;42.75;11.30;;;;;;;;;;5066701;28;20535;-77
2022/10/18 00:17:19;;;;;;;20.98;11.25;;;;;;;;;;5083342;28;20044;-75
2022/10/18 00:19:49;;;;;;;52.25;10.77;;;;;;;;;;5068457;28;20044;-75
2022/10/18 00:22:16;;;;;;;25.25;11.15;;;;;;;;;;5056962;28;20044;-75
2022/10/18 00:24:43;;;;;;;21.17;10.70;;;;;;;;;;5075795;28;20115;-75
2022/10/18 00:27:10;;;;;;;28.38;10.63;;;;;;;;;;5067954;28;20045;-75
2022/10/18 00:29:38;;;;;;;31.90;10.82;;;;;;;;;;5051428;28;20086;-75
2022/10/18 00:32:05;;;;;;;15.32;10.07;;;;;;;;;;5064040;28;20132;-77
2022/10/18 00:34:32;;;;;;;30.80;9.30;;;;;;;;;;5067102;28;20102;-76
2022/10/18 00:37:00;;;;;;;38.22;10.32;;;;;;;;;;5071543;28;20089;-76
2022/10/18 00:39:27;;;;;;;19.30;9.93;;;;;;;;;;5085159;28;20047;-76
2022/10/18 00:41:55;;;;;;;28.75;9.52;;;;;;;;;;5068540;28;20796;-76
2022/10/18 00:44:28;;;;;;;18.00;9.35;;;;;;;;;;5066278;28;20032;-75
2022/10/18 00:46:57;;;;;;;27.85;9.55;;;;;;;;;;5067172;28;20044;-75
2022/10/18 00:49:28;;;;;;;21.60;8.90;;;;;;;;;;5065276;28;20048;-76
2022/10/18 00:52:07;;;;;;;19.55;9.43;;;;;;;;;;5067589;28;20132;-75
2022/10/18 00:54:36;;;;;;;13.55;8.88;;;;;;;;;;5068229;28;20044;-76
2022/10/18 00:57:04;;;;;;;23.35;9.30;;;;;;;;;;5075000;28;20045;-75
2022/10/18 00:59:32;;;;;;;22.95;8.60;;;;;;;;;;5071150;28;20537;-75
2022/10/18 01:01:59;;;;;;;17.38;10.07;;;;;;;;;;5072510;28;20036;-75
2022/10/18 01:04:26;;;;;;;35.13;10.32;;;;;;;;;;5073043;28;20502;-75
2022/10/18 01:06:59;;;;;;;32.13;11.15;;;;;;;;;;5065181;28;20044;-75
2022/10/18 01:09:45;;;;;;;45.35;11.40;;;;;;;;;;5066713;28;20047;-75
2022/10/18 01:12:19;;;;;;;35.45;10.55;;;;;;;;;;5078200;28;20053;-75
2022/10/18 01:14:53;;;;;;;28.20;10.63;;;;;;;;;;5061075;28;20075;-75
2022/10/18 01:17:27;;;;;;;34.83;10.00;;;;;;;;;;5070228;28;20033;-75
2022/10/18 01:20:17;;;;;;;26.88;10.23;;;;;;;;;;5054865;28;20102;-75
2022/10/18 01:22:55;;;;;;;20.50;9.52;;;;;;;;;;5066763;28;20089;-76
2022/10/18 01:25:25;;;;;;;40.50;10.02;;;;;;;;;;5058225;28;20045;-75
2022/10/18 01:27:56;;;;;;;32.13;9.43;;;;;;;;;;5070167;28;20059;-75
2022/10/18 01:30:32;;;;;;;26.63;9.77;;;;;;;;;;5065448;28;20130;-75
2022/10/18 01:33:04;;;;;;;28.27;9.80;;;;;;;;;;5063496;28;20060;-75
2022/10/18 01:35:34;;;;;;;18.95;9.55;;;;;;;;;;5076545;28;20118;-75
2022/10/18 01:38:03;;;;;;;17.30;8.52;;;;;;;;;;5071008;28;20071;-76
2022/10/18 01:40:32;;;;;;;22.20;9.13;;;;;;;;;;5059628;28;20048;-75
2022/10/18 01:43:00;;;;;;;33.53;9.32;;;;;;;;;;5068167;28;20040;-76
2022/10/18 01:45:27;;;;;;;19.05;9.10;;;;;;;;;;5067812;28;20045;-75
2022/10/18 01:47:55;;;;;;;31.60;9.13;;;;;;;;;;5071439;28;20135;-75
2022/10/18 01:50:29;;;;;;;20.70;8.57;;;;;;;;;;5066803;28;20465;-75
2022/10/18 01:52:57;;;;;;;37.88;10.25;;;;;;;;;;5071677;28;20059;-75
2022/10/18 01:55:27;;;;;;;19.05;9.52;;;;;;;;;;5066173;28;20050;-76
2022/10/18 01:58:03;;;;;;;20.88;9.38;;;;;;;;;;5080533;28;20036;-75
2022/10/18 02:00:38;;;;;;;15.77;9.70;;;;;;;;;;5064217;28;20626;-75
2022/10/18 02:03:10;;;;;;;11.18;8.85;;;;;;;;;;5074875;28;20094;-75
2022/10/18 02:05:39;;;;;;;;;;;;;;;;;;5063125;28;20044;-75
2022/10/18 02:08:11;;;;;;;29.80;8.45;;;;;;;;;;5066617;28;19920;-75
2022/10/18 02:11:01;;;;;;;28.73;8.30;;;;;;;;;;5062865;28;20069;-75
2022/10/18 02:13:31;;;;;;;8.82;7.65;;;;;;;;;;5073294;28;20090;-75
2022/10/18 02:16:00;;;;;;;37.22;8.20;;;;;;;;;;5069302;28;20036;-75
2022/10/18 02:18:30;;;;;;;22.83;8.25;;;;;;;;;;5072210;28;20045;-76
2022/10/18 02:20:57;;;;;;;8.98;8.07;;;;;;;;;;5067820;28;20037;-76
2022/10/18 02:23:25;;;;;;;19.92;7.60;;;;;;;;;;5069853;28;20141;-75
2022/10/18 02:25:53;;;;;;;13.55;7.32;;;;;;;;;;5068323;28;20045;-75
2022/10/18 02:28:21;;;;;;;20.83;8.52;;;;;;;;;;5066325;28;20155;-75
2022/10/18 02:30:58;;;;;;;10.50;7.90;;;;;;;;;;5063751;28;20067;-75
2022/10/18 02:33:31;;;;;;;19.70;7.32;;;;;;;;;;5062735;28;20052;-75
2022/10/18 02:36:00;;;;;;;17.67;7.20;;;;;;;;;;5063120;28;20120;-75
2022/10/18 02:38:28;;;;;;;14.35;7.82;;;;;;;;;;5066889;28;20807;-75
2022/10/18 02:40:55;;;;;;;18.27;7.78;;;;;;;;;;5061715;28;20041;-75
2022/10/18 02:43:23;;;;;;;17.45;7.70;;;;;;;;;;5065378;28;20037;-75
2022/10/18 02:45:51;;;;;;;20.80;6.78;;;;;;;;;;5044813;28;20077;-75
2022/10/18 02:48:19;;;;;;;11.40;7.95;;;;;;;;;;5061203;28;20040;-75
2022/10/18 02:50:46;;;;;;;29.98;8.52;;;;;;;;;;5063433;28;20792;-75
2022/10/18 02:53:13;;;;;;;12.88;8.02;;;;;;;;;;5064557;28;20051;-76
2022/10/18 02:55:40;;;;;;;11.57;8.55;;;;;;;;;;5050634;28;20048;-75
2022/10/18 02:58:07;;;;;;;16.52;8.30;;;;;;;;;;5069582;28;20127;-75
2022/10/18 03:00:35;;;;;;;36.13;7.95;;;;;;;;;;5066401;28;20120;-76
2022/10/18 03:03:02;;;;;;;11.95;7.68;;;;;;;;;;5059572;28;20036;-75
2022/10/18 03:05:29;;;;;;;12.95;7.10;;;;;;;;;;5066156;28;20660;-74
2022/10/18 03:07:57;;;;;;;21.02;8.45;;;;;;;;;;5074143;28;20035;-75
2022/10/18 03:10:24;;;;;;;18.05;7.90;;;;;;;;;;5063253;28;20075;-75
2022/10/18 03:12:51;;;;;;;22.73;8.73;;;;;;;;;;5068475;28;20036;-75
2022/10/18 03:15:18;;;;;;;11.00;8.23;;;;;;;;;;5065000;28;20515;-75
2022/10/18 03:17:45;;;;;;;30.67;8.63;;;;;;;;;;5063539;28;20491;-75
2022/10/18 03:20:13;;;;;;;19.77;8.82;;;;;;;;;;5063298;28;20055;-75
2022/10/18 03:22:40;;;;;;;12.57;8.20;;;;;;;;;;5063832;28;20033;-75
2022/10/18 03:25:07;;;;;;;16.85;8.25;;;;;;;;;;5060849;28;20579;-75
2022/10/18 03:27:34;;;;;;;17.13;7.72;;;;;;;;;;5064741;28;20044;-74
2022/10/18 03:30:02;;;;;;;14.05;8.23;;;;;;;;;;5065073;28;20047;-75
2022/10/18 03:32:29;;;;;;;11.43;7.97;;;;;;;;;;5065660;28;20040;-75
2022/10/18 03:34:57;;;;;;;9.80;8.80;;;;;;;;;;5064440;28;20045;-75
2022/10/18 03:37:24;;;;;;;11.35;8.85;;;;;;;;;;5063267;28;20586;-75
2022/10/18 03:39:51;;;;;;;19.02;9.18;;;;;;;;;;5068753;28;20067;-75
2022/10/18 03:42:18;;;;;;;17.88;8.77;;;;;;;;;;5064906;28;20115;-75
2022/10/18 03:44:46;;;;;;;11.00;7.97;;;;;;;;;;5065507;28;20044;-75
2022/10/18 03:47:13;;;;;;;16.35;8.20;;;;;;;;;;5072907;28;20047;-75
2022/10/18 03:49:40;;;;;;;24.63;7.82;;;;;;;;;;5062090;28;20072;-75
2022/10/18 03:52:07;;;;;;;17.70;8.70;;;;;;;;;;5066653;28;20068;-75
2022/10/18 03:54:35;;;;;;;15.68;8.10;;;;;;;;;;5068589;28;20411;-75
2022/10/18 03:57:02;;;;;;;20.23;8.75;;;;;;;;;;5067986;28;20136;-75
2022/10/18 03:59:29;;;;;;;14.50;7.60;;;;;;;;;;5067395;28;20051;-75
2022/10/18 04:01:56;;;;;;;10.75;7.10;;;;;;;;;;5071997;28;20040;-75
2022/10/18 04:04:24;;;;;;;20.80;7.72;;;;;;;;;;5063998;28;20160;-75
2022/10/18 04:06:51;;;;;;;9.43;7.32;;;;;;;;;;5073492;28;20439;-75
2022/10/18 04:09:18;;;;;;;15.00;7.38;;;;;;;;;;5064598;28;20068;-75
2022/10/18 04:11:46;;;;;;;29.08;8.80;;;;;;;;;;5071214;28;20124;-76
2022/10/18 04:14:13;;;;;;;17.90;7.05;;;;;;;;;;5072067;28;20102;-75
2022/10/18 04:16:40;;;;;;;9.60;6.65;;;;;;;;;;5060876;28;20108;-75
2022/10/18 04:19:07;;;;;;;9.40;6.88;;;;;;;;;;5058541;28;20880;-75
2022/10/18 04:21:35;;;;;;;16.05;7.88;;;;;;;;;;5067277;28;20529;-75
2022/10/18 04:24:02;;;;;;;15.50;8.50;;;;;;;;;;5068341;28;20051;-75
2022/10/18 04:26:29;;;;;;;25.58;7.38;;;;;;;;;;5061758;28;20047;-76
2022/10/18 04:28:57;;;;;;;14.13;7.07;;;;;;;;;;5060821;28;20132;-77
2022/10/18 04:31:24;;;;;;;18.40;7.85;;;;;;;;;;5065686;28;20056;-75
2022/10/18 04:33:51;;;;;;;19.48;7.45;;;;;;;;;;5065638;28;20040;-75
2022/10/18 04:36:19;;;;;;;14.25;8.07;;;;;;;;;;5064988;28;20457;-76
2022/10/18 04:38:46;;;;;;;9.23;7.43;;;;;;;;;;5068438;28;20056;-76
2022/10/18 04:41:13;;;;;;;12.25;8.30;;;;;;;;;;5057763;28;20119;-75
2022/10/18 04:43:41;;;;;;;33.78;8.20;;;;;;;;;;5069885;28;20059;-76
2022/10/18 04:46:08;;;;;;;37.30;8.05;;;;;;;;;;5063279;28;20056;-76
2022/10/18 04:48:35;;;;;;;15.45;7.30;;;;;;;;;;5062820;28;20036;-75
2022/10/18 04:51:02;;;;;;;15.20;7.38;;;;;;;;;;5066907;28;20073;-75
2022/10/18 04:53:30;;;;;;;38.00;7.20;;;;;;;;;;5072858;28;20712;-75
2022/10/18 04:55:57;;;;;;;18.17;6.88;;;;;;;;;;5061106;28;20040;-77
2022/10/18 04:58:24;;;;;;;15.23;6.40;;;;;;;;;;5061735;28;20116;-75
2022/10/18 05:00:52;;;;;;;7.60;6.13;;;;;;;;;;5067108;28;20103;-76
2022/10/18 05:03:19;;;;;;;21.98;6.53;;;;;;;;;;5061066;28;20098;-76
2022/10/18 05:05:46;;;;;;;19.95;7.22;;;;;;;;;;5080052;28;20691;-76
2022/10/18 05:08:29;;;;;;;20.33;5.43;;;;;;;;;;5064056;28;20076;-75
2022/10/18 05:10:56;;;;;;;15.82;6.00;;;;;;;;;;5065808;28;20076;-76
2022/10/18 05:13:23;;;;;;;16.25;6.72;;;;;;;;;;5060856;28;20148;-76
2022/10/18 05:15:51;;;;;;;9.55;5.65;;;;;;;;;;5046007;28;20123;-76
2022/10/18 05:18:18;;;;;;;7.88;6.35;;;;;;;;;;5066694;28;20036;-75
2022/10/18 05:20:46;;;;;;;30.00;6.10;;;;;;;;;;5057000;28;20193;-75
2022/10/18 05:23:13;;;;;;;9.55;6.72;;;;;;;;;;5067305;28;20044;-75
2022/10/18 05:25:41;;;;;;;16.90;6.03;;;;;;;;;;5065942;28;20458;-76
2022/10/18 05:28:09;;;;;;;27.88;5.88;;;;;;;;;;5072908;28;20063;-75
2022/10/18 05:30:53;;;;;;;13.40;5.82;;;;;;;;;;5072396;28;20676;-75
2022/10/18 05:33:20;;;;;;;16.52;6.63;;;;;;;;;;5067548;28;20391;-75
2022/10/18 05:35:47;;;;;;;8.43;5.80;;;;;;;;;;5084865;28;20119;-76
2022/10/18 05:38:15;;;;;;;7.15;6.45;;;;;;;;;;5068978;28;20152;-75
2022/10/18 05:40:42;;;;;;;11.65;6.63;;;;;;;;;;5064055;28;20070;-76
2022/10/18 05:43:09;;;;;;;8.35;7.03;;;;;;;;;;5064353;28;20043;-76
2022/10/18 05:45:36;;;;;;;6.68;5.80;;;;;;;;;;5064681;28;20683;-76
2022/10/18 05:48:06;;;;;;;9.95;6.63;;;;;;;;;;5066219;28;20049;-79
2022/10/18 05:50:33;;;;;;;16.63;6.55;;;;;;;;;;5064164;28;20040;-77
2022/10/18 05:53:05;;;;;;;14.75;6.32;;;;;;;;;;5064752;28;20040;-79
2022/10/18 05:55:38;;;;;;;7.45;5.97;;;;;;;;;;5061628;28;20043;-76
2022/10/18 05:58:06;;;;;;;15.85;6.47;;;;;;;;;;5073038;28;20036;-75
2022/10/18 06:00:33;;;;;;;13.23;6.47;;;;;;;;;;5068858;28;20040;-82
2022/10/18 06:03:00;;;;;;;13.23;6.43;;;;;;;;;;5071239;28;20164;-75
2022/10/18 06:05:28;;;;;;;10.50;7.15;;;;;;;;;;5068151;28;20109;-75
2022/10/18 06:07:55;;;;;;;10.32;6.38;;;;;;;;;;5064728;28;20094;-76
2022/10/18 06:10:23;;;;;;;37.42;6.65;;;;;;;;;;5064565;28;20041;-76
2022/10/18 06:12:50;;;;;;;17.20;7.38;;;;;;;;;;5073853;28;20142;-76
2022/10/18 06:15:17;;;;;;;8.68;6.78;;;;;;;;;;5071310;28;20047;-75
2022/10/18 06:17:44;;;;;;;10.95;7.00;;;;;;;;;;5064245;28;20106;-76
2022/10/18 06:20:12;;;;;;;8.43;6.43;;;;;;;;;;5063343;28;20104;-75
2022/10/18 06:22:39;;;;;;;14.45;7.20;;;;;;;;;;5063882;28;20135;-83
2022/10/18 06:25:06;;;;;;;9.45;7.20;;;;;;;;;;5087260;28;20100;-75
2022/10/18 06:27:34;;;;;;;21.58;7.10;;;;;;;;;;5066300;28;20089;-75
2022/10/18 06:30:02;;;;;;;12.35;5.53;;;;;;;;;;5062147;28;20047;-76
2022/10/18 06:32:29;;;;;;;12.80;7.15;;;;;;;;;;5080720;28;20052;-75
2022/10/18 06:34:56;;;;;;;9.15;7.32;;;;;;;;;;5072439;28;20451;-75
2022/10/18 06:37:23;;;;;;;13.43;7.55;;;;;;;;;;5069934;28;20144;-75
2022/10/18 06:39:51;;;;;;;16.73;8.65;;;;;;;;;;5081857;28;20465;-75
2022/10/18 06:42:18;;;;;;;8.48;7.13;;;;;;;;;;5064239;28;20123;-75
2022/10/18 06:44:49;;;;;;;11.93;8.18;;;;;;;;;;5063947;28;20562;-75
2022/10/18 06:47:16;;;;;;;52.17;8.20;;;;;;;;;;5067489;28;20151;-75
2022/10/18 06:49:43;;;;;;;11.98;7.35;;;;;;;;;;5060786;28;20044;-75
2022/10/18 06:52:10;;;;;;;19.80;7.60;;;;;;;;;;5073797;28;20091;-75
2022/10/18 06:54:38;;;;;;;25.83;8.75;;;;;;;;;;5067270;28;20098;-77
2022/10/18 06:57:05;;;;;;;34.10;8.65;;;;;;;;;;5066871;28;20044;-76
2022/10/18 06:59:34;;;;;;;21.92;9.18;;;;;;;;;;5053830;28;20048;-75
2022/10/18 07:02:01;;;;;;;39.00;8.50;;;;;;;;;;5059165;28;20039;-74
2022/10/18 07:04:32;;;;;;;13.75;8.60;;;;;;;;;;5069109;28;20047;-75
2022/10/18 07:06:59;;;;;;;36.25;9.10;;;;;;;;;;5061768;28;20136;-75
2022/10/18 07:09:27;;;;;;;22.15;8.40;;;;;;;;;;5066022;28;20511;-77
2022/10/18 07:11:54;;;;;;;13.30;8.10;;;;;;;;;;5061403;28;20072;-77
2022/10/18 07:14:21;;;;;;;11.50;8.63;;;;;;;;;;5062215;28;20126;-76
2022/10/18 07:16:55;;;;;;;10.60;8.45;;;;;;;;;;5062567;28;20048;-76
2022/10/18 07:19:22;;;;;;;14.98;8.65;;;;;;;;;;5065777;28;20127;-76
2022/10/18 07:21:49;;;;;;;20.60;8.05;;;;;;;;;;5065141;28;20515;-76
2022/10/18 07:24:16;;;;;;;12.35;7.38;;;;;;;;;;5062746;28;20566;-76
2022/10/18 07:26:44;;;;;;;18.95;7.68;;;;;;;;;;5061710;28;20040;-75
2022/10/18 07:29:12;;;;;;;15.82;6.93;;;;;;;;;;5060678;28;20044;-76
2022/10/18 07:31:39;;;;;;;8.90;8.00;;;;;;;;;;5060305;28;20044;-76
2022/10/18 07:34:09;;;;;;;10.63;7.82;;;;;;;;;;5064573;28;20054;-76
2022/10/18 07:36:37;;;;;;;8.38;7.57;;;;;;;;;;5064743;28;20827;-76
2022/10/18 07:39:04;;;;;;;9.30;8.05;;;;;;;;;;5065685;28;20062;-76
2022/10/18 07:41:33;;;;;;;10.35;7.93;;;;;;;;;;5055785;28;20040;-76
2022/10/18 07:44:00;;;;;;;10.85;7.50;;;;;;;;;;5074969;28;20566;-76
2022/10/18 07:46:28;;;;;;;26.95;9.25;;;;;;;;;;5061207;28;20036;-76
2022/10/18 07:48:57;;;;;;;16.23;8.88;;;;;;;;;;5063459;28;20046;-83
2022/10/18 07:51:24;;;;;;;13.73;9.13;;;;;;;;;;5055998;28;20040;-76
2022/10/18 07:53:51;;;;;;;13.27;8.63;;;;;;;;;;5078741;28;20499;-76
2022/10/18 07:56:20;;;;;;;15.85;8.13;;;;;;;;;;5060187;28;20124;-76
2022/10/18 07:58:55;;;;;;;8.63;7.28;;;;;;;;;;5068217;28;20502;-78
2022/10/18 08:01:24;;;;;;;11.18;7.82;;;;;;;;;;5067395;28;20059;-76
2022/10/18 08:03:51;;;;;;;7.50;6.80;;;;;;;;;;5068220;28;20461;-75
2022/10/18 08:06:19;;;;;;;21.58;8.57;;;;;;;;;;5072527;28;20052;-77
2022/10/18 08:08:47;;;;;;;14.57;8.63;;;;;;;;;;5065604;28;20045;-76
2022/10/18 08:11:16;;;;;;;10.18;8.38;;;;;;;;;;5056746;28;20044;-76
2022/10/18 08:13:43;;;;;;;11.80;8.65;;;;;;;;;;5081198;28;20504;-76
2022/10/18 08:16:12;;;;;;;8.32;7.60;;;;;;;;;;5076614;28;20055;-76
2022/10/18 08:18:39;;;;;;;8.50;7.50;;;;;;;;;;5077957;28;20131;-76
2022/10/18 08:21:08;;;;;;;7.88;7.07;;;;;;;;;;5070005;28;20529;-76
2022/10/18 08:23:35;;;;;;;9.15;7.88;;;;;;;;;;5070242;28;20040;-78
2022/10/18 08:26:04;;;;;;;8.73;7.82;;;;;;;;;;5074847;28;20044;-76
2022/10/18 08:28:32;;;;;;;7.82;7.07;;;;;;;;;;5072284;28;20687;-76
2022/10/18 08:31:07;;;;;;;8.20;7.35;;;;;;;;;;5078048;28;20071;-76
2022/10/18 08:33:35;;;;;;;8.27;7.47;;;;;;;;;;5087494;28;20146;-83
2022/10/18 08:36:06;;;;;;;7.22;6.53;;;;;;;;;;5087560;28;20076;-77
2022/10/18 08:38:34;;;;;;;7.40;6.70;;;;;;;;;;5071063;28;20055;-75
2022/10/18 08:41:20;;;;;;;7.10;6.40;;;;;;;;;;5067162;28;20041;-76
2022/10/18 08:43:57;;;;;;;8.25;7.45;;;;;;;;;;5070746;28;20078;-77
2022/10/18 08:46:30;;;;;;;7.10;6.40;;;;;;;;;;5066972;28;20040;-77
2022/10/18 08:48:58;;;;;;;7.35;6.60;;;;;;;;;;5068476;28;20052;-77
2022/10/18 08:51:39;;;;;;;7.05;6.38;;;;;;;;;;5054776;28;20522;-78
2022/10/18 08:54:11;;;;;;;6.63;6.03;;;;;;;;;;5071671;28;20398;-76
2022/10/18 08:56:40;;;;;;;7.88;6.55;;;;;;;;;;5071098;28;20128;-76
2022/10/18 08:59:11;;;;;;;7.35;6.65;;;;;;;;;;5077636;28;20043;-78
2022/10/18 09:01:48;;;;;;;6.90;6.22;;;;;;;;;;5082709;28;20064;-77
2022/10/18 09:04:33;;;;;;;9.85;6.30;;;;;;;;;;5089914;28;20044;-80
2022/10/18 09:07:19;;;;;;;7.28;6.57;;;;;;;;;;5088097;28;20507;-76
2022/10/18 09:09:59;;;;;;;9.68;6.53;;;;;;;;;;5088504;28;20068;-77
2022/10/18 09:12:38;;;;;;;8.38;6.30;;;;;;;;;;5080471;28;20052;-84
2022/10/18 09:15:35;;;;;;;6.82;5.93;;;;;;;;;;5068252;28;20052;-77
2022/10/18 09:18:24;;;;;;;9.98;6.05;;;;;;;;;;4997416;28;20129;-77
2022/10/18 09:20:55;;;;;;;7.63;6.90;;;;;;;;;;5098963;28;20388;-76
2022/10/18 09:23:30;;;;;;;10.00;6.20;;;;;;;;;;5087117;28;20044;-77
2022/10/18 09:26:10;;;;;;;7.90;7.28;;;;;;;;;;5086345;28;20040;-77
2022/10/18 09:28:44;;;;;;;7.68;7.07;;;;;;;;;;5088322;28;20058;-77
2022/10/18 09:31:17;;;;;;;9.27;8.02;;;;;;;;;;5088105;28;20070;-77
2022/10/18 09:34:00;;;;;;;8.57;7.75;;;;;;;;;;5081953;28;20120;-77
2022/10/18 09:36:34;;;;;;;9.80;8.77;;;;;;;;;;5067139;28;20573;-76
2022/10/18 09:39:09;;;;;;;10.13;8.05;;;;;;;;;;5065786;28;20045;-82
2022/10/18 09:41:44;;;;;;;11.50;8.55;;;;;;;;;;5067005;28;20044;-76
2022/10/18 09:44:22;;;;;;;10.63;9.63;;;;;;;;;;5066116;28;20068;-76
2022/10/18 09:47:01;;;;;;;10.10;9.10;;;;;;;;;;5099729;28;20067;-76
2022/10/18 09:49:30;;;;;;;12.25;8.98;;;;;;;;;;5079195;28;20459;-76
2022/10/18 09:51:59;;;;;;;12.82;8.98;;;;;;;;;;5071011;28;20075;-76
2022/10/18 09:54:33;;;;;;;12.10;10.07;;;;;;;;;;5066129;28;20101;-76
2022/10/18 09:57:13;;;;;;;17.13;10.23;;;;;;;;;;5071277;28;20047;-76
2022/10/18 09:59:48;;;;;;;13.13;11.07;;;;;;;;;;5066187;28;20045;-76
2022/10/18 10:02:22;;;;;;;13.43;10.45;;;;;;;;;;5067733;28;20669;-76
2022/10/18 10:04:50;;;;;;;14.02;11.48;;;;;;;;;;5069804;28;20402;-76
2022/10/18 10:07:19;;;;;;;14.35;11.20;;;;;;;;;;5082028;28;20453;-82
2022/10/18 10:10:04;;;;;;;16.23;11.55;;;;;;;;;;5070297;28;20060;-76
2022/10/18 10:12:33;;;;;;;14.23;12.52;;;;;;;;;;5052410;28;20481;-76
2022/10/18 10:15:18;;;;;;;12.95;10.98;;;;;;;;;;5085880;28;20490;-76
2022/10/18 10:18:04;;;;;;;14.43;10.88;;;;;;;;;;5062963;28;20094;-77
2022/10/18 10:20:47;;;;;;;15.52;10.43;;;;;;;;;;5088101;28;20503;-76
2022/10/18 10:23:27;;;;;;;10.32;8.68;;;;;;;;;;5070477;28;20090;-76
2022/10/18 10:25:56;;;;;;;7.35;6.53;;;;;;;;;;5069210;28;20490;-77
2022/10/18 10:28:25;;;;;;;7.80;6.93;;;;;;;;;;5069219;28;20076;-77
2022/10/18 10:30:53;;;;;;;11.82;7.65;;;;;;;;;;5082203;28;20062;-75
2022/10/18 10:33:37;;;;;;;11.68;8.43;;;;;;;;;;5057767;28;20076;-76
2022/10/18 10:36:06;;;;;;;8.88;7.95;;;;;;;;;;5061242;28;20036;-76
2022/10/18 10:38:33;;;;;;;7.25;6.55;;;;;;;;;;5061809;28;20451;-77
2022/10/18 10:41:00;;;;;;;12.70;8.20;;;;;;;;;;5062679;28;20028;-76
2022/10/18 10:43:28;;;;;;;9.32;8.38;;;;;;;;;;5066654;28;20088;-79
2022/10/18 10:46:12;;;;;;;12.32;8.90;;;;;;;;;;5058668;28;20494;-76
2022/10/18 10:48:50;;;;;;;9.13;8.18;;;;;;;;;;5070757;28;20044;-76
2022/10/18 10:51:36;;;;;;;12.63;7.68;;;;;;;;;;5068169;28;20063;-77
2022/10/18 10:54:15;;;;;;;9.15;7.15;;;;;;;;;;5068759;28;20106;-76
2022/10/18 10:57:10;;;;;;;10.68;7.47;;;;;;;;;;5068626;28;20044;-76
2022/10/18 10:59:51;;;;;;;9.32;7.40;;;;;;;;;;5064668;28;20048;-77
2022/10/18 11:02:25;;;;;;;8.52;7.55;;;;;;;;;;5068536;28;20590;-77
2022/10/18 11:04:54;;;;;;;15.07;8.32;;;;;;;;;;5070386;28;20032;-76
2022/10/18 11:07:30;;;;;;;8.93;7.57;;;;;;;;;;5068787;28;20051;-76
2022/10/18 11:10:13;;;;;;;11.95;8.90;;;;;;;;;;5067611;28;20064;-76
2022/10/18 11:12:43;;;;;;;11.10;8.98;;;;;;;;;;5070568;28;20139;-82
2022/10/18 11:15:13;;;;;;;10.23;8.70;;;;;;;;;;5069925;28;20068;-76
2022/10/18 11:17:48;;;;;;;13.10;9.02;;;;;;;;;;5068134;28;20131;-77
2022/10/18 11:20:18;;;;;;;10.30;9.00;;;;;;;;;;5068268;28;20037;-76
2022/10/18 11:22:53;;;;;;;10.07;8.95;;;;;;;;;;5070242;28;20048;-77
2022/10/18 11:25:21;;;;;;;10.65;8.50;;;;;;;;;;5065996;28;20029;-76
2022/10/18 11:27:59;;;;;;;11.68;8.38;;;;;;;;;;5059222;28;20048;-76
2022/10/18 11:30:26;;;;;;;9.07;8.15;;;;;;;;;;5074806;28;20774;-76
2022/10/18 11:32:53;;;;;;;10.27;8.52;;;;;;;;;;5070982;28;20044;-76
2022/10/18 11:35:33;;;;;;;13.48;8.07;;;;;;;;;;5049091;28;20132;-76
2022/10/18 11:38:13;;;;;;;9.75;8.05;;;;;;;;;;5080288;28;20143;-76
2022/10/18 11:40:59;;;;;;;14.13;8.18;;;;;;;;;;5089591;28;20040;-76
2022/10/18 11:43:32;;;;;;;8.85;7.53;;;;;;;;;;5076743;28;20370;-77
2022/10/18 11:46:29;;;;;;;9.00;6.97;;;;;;;;;;5067198;28;20108;-76
2022/10/18 11:49:05;;;;;;;8.18;6.28;;;;;;;;;;5051405;28;20075;-77
2022/10/18 11:51:48;;;;;;;7.28;6.57;;;;;;;;;;5069205;28;20128;-76
2022/10/18 11:54:49;;;;;;;7.90;6.13;;;;;;;;;;5062237;28;20060;-76
2022/10/18 11:57:19;;;;;;;9.95;5.88;;;;;;;;;;5056335;28;20098;-76
2022/10/18 11:59:58;;;;;;;6.97;6.30;;;;;;;;;;5084959;28;20040;-76
2022/10/18 12:02:44;;;;;;;7.25;5.95;;;;;;;;;;5075362;28;20121;-76
2022/10/18 12:05:12;;;;;;;8.75;5.60;;;;;;;;;;5066625;28;20596;-76
2022/10/18 12:07:58;;;;;;;6.20;5.60;;;;;;;;;;5049016;28;20544;-76
2022/10/18 12:10:26;;;;;;;8.82;6.05;;;;;;;;;;5067356;28;20060;-76
2022/10/18 12:13:17;;;;;;;6.07;5.47;;;;;;;;;;5068091;28;20046;-76
2022/10/18 12:15:45;;;;;;;5.15;4.65;;;;;;;;;;5067497;28;20051;-76
2022/10/18 12:18:15;;;;;;;6.30;5.70;;;;;;;;;;5084221;28;20058;-76
2022/10/18 12:20:45;;;;;;;9.50;5.30;;;;;;;;;;5084278;28;20041;-77
2022/10/18 12:23:16;;;;;;;7.22;5.28;;;;;;;;;;5068360;28;20102;-75
2022/10/18 12:25:49;;;;;;;6.43;5.43;;;;;;;;;;5067023;28;20040;-77
2022/10/18 12:28:17;;;;;;;5.53;5.07;;;;;;;;;;5069064;28;20052;-77
2022/10/18 12:30:53;;;;;;;5.72;5.22;;;;;;;;;;5068759;28;20135;-77
2022/10/18 12:33:25;;;;;;;8.23;5.10;;;;;;;;;;5068846;28;20075;-77
2022/10/18 12:36:15;;;;;;;5.57;5.03;;;;;;;;;;5067658;28;20477;-77
2022/10/18 12:38:44;;;;;;;6.40;5.22;;;;;;;;;;5068910;28;20036;-83
2022/10/18 12:41:24;;;;;;;9.25;5.00;;;;;;;;;;5068771;28;20044;-76
2022/10/18 12:44:05;;;;;;;7.57;5.32;;;;;;;;;;5069287;28;20048;-76
2022/10/18 12:46:43;;;;;;;5.57;5.00;;;;;;;;;;5067081;28;20037;-77
2022/10/18 12:49:12;;;;;;;5.90;5.05;;;;;;;;;;5067413;28;20515;-77
2022/10/18 12:52:00;;;;;;;11.10;5.90;;;;;;;;;;5069049;28;20570;-76
2022/10/18 12:54:29;;;;;;;11.45;5.22;;;;;;;;;;5068652;28;20044;-75
2022/10/18 12:56:57;;;;;;;5.15;4.40;;;;;;;;;;5068147;28;20491;-76
2022/10/18 12:59:27;;;;;;;8.73;4.88;;;;;;;;;;5067439;28;20067;-77
2022/10/18 13:01:54;;;;;;;4.70;4.30;;;;;;;;;;5067387;28;20517;-76
2022/10/18 13:04:28;;;;;;;11.07;4.82;;;;;;;;;;5067083;28;20049;-76
2022/10/18 13:07:04;;;;;;;8.25;5.50;;;;;;;;;;5067392;28;20037;-77
2022/10/18 13:09:35;;;;;;;7.57;4.57;;;;;;;;;;5082306;28;20048;-76
2022/10/18 13:12:05;;;;;;;4.97;4.57;;;;;;;;;;5067867;28;20036;-75
2022/10/18 13:14:51;;;;;;;5.13;4.72;;;;;;;;;;5067652;28;20055;-76
2022/10/18 13:17:42;;;;;;;7.15;4.60;;;;;;;;;;5064710;28;20487;-77
2022/10/18 13:20:12;;;;;;;5.05;4.30;;;;;;;;;;5066643;28;20048;-77
2022/10/18 13:22:59;;;;;;;6.38;4.53;;;;;;;;;;5063682;28;20535;-76
2022/10/18 13:25:45;;;;;;;5.63;5.13;;;;;;;;;;5065664;28;20136;-78
2022/10/18 13:28:15;;;;;;;8.50;4.78;;;;;;;;;;5066496;28;20112;-76
2022/10/18 13:31:09;;;;;;;9.23;5.13;;;;;;;;;;5067263;28;20068;-76
2022/10/18 13:33:38;;;;;;;8.07;6.57;;;;;;;;;;5050968;28;20052;-76
2022/10/18 13:36:18;;;;;;;6.30;4.47;;;;;;;;;;5048877;28;20423;-77
2022/10/18 13:38:49;;;;;;;5.32;4.90;;;;;;;;;;5082129;28;20044;-76
2022/10/18 13:41:18;;;;;;;9.52;5.00;;;;;;;;;;5065505;28;20067;-76
2022/10/18 13:43:52;;;;;;;7.20;4.93;;;;;;;;;;5073097;28;20048;-76
2022/10/18 13:46:20;;;;;;;6.78;4.45;;;;;;;;;;5069291;28;20040;-76
2022/10/18 13:48:51;;;;;;;9.90;5.40;;;;;;;;;;5069560;28;20051;-76
2022/10/18 13:51:35;;;;;;;5.95;5.00;;;;;;;;;;5069115;28;20037;-76
2022/10/18 13:54:21;;;;;;;8.00;4.82;;;;;;;;;;5069447;28;20033;-76
2022/10/18 13:56:48;;;;;;;7.22;5.15;;;;;;;;;;5070156;28;20036;-76
2022/10/18 13:59:35;;;;;;;6.03;4.63;;;;;;;;;;5069433;28;20040;-76
2022/10/18 14:02:10;;;;;;;6.95;4.90;;;;;;;;;;5062603;28;20040;-76
2022/10/18 14:04:42;;;;;;;6.00;5.38;;;;;;;;;;5068201;28;20040;-76
2022/10/18 14:07:09;;;;;;;;;;;;;;;;;;5067591;28;20064;-78
2022/10/18 14:09:44;;;;;;;9.40;6.40;;;;;;;;;;5051072;28;19963;-75
2022/10/18 14:12:26;;;;;;;6.43;4.60;;;;;;;;;;5066335;28;20044;-75
2022/10/18 14:15:04;;;;;;;6.03;5.45;;;;;;;;;;5069465;28;20118;-75
2022/10/18 14:17:41;;;;;;;6.00;5.40;;;;;;;;;;5067657;28;20325;-76
2022/10/18 14:20:21;;;;;;;9.35;5.03;;;;;;;;;;5068122;28;20044;-76
2022/10/18 14:23:21;;;;;;;6.53;5.15;;;;;;;;;;5068602;28;20410;-75
2022/10/18 14:25:48;;;;;;;4.93;4.43;;;;;;;;;;5065224;28;20143;-76
2022/10/18 14:28:18;;;;;;;7.95;5.40;;;;;;;;;;5064545;28;20461;-79
2022/10/18 14:31:07;;;;;;;9.23;4.60;;;;;;;;;;5069075;28;20055;-77
2022/10/18 14:33:53;;;;;;;8.07;4.95;;;;;;;;;;5034493;28;20056;-76
2022/10/18 14:36:39;;;;;;;5.43;4.93;;;;;;;;;;5068052;28;20052;-76
2022/10/18 14:39:14;;;;;;;13.70;5.38;;;;;;;;;;5067604;28;20048;-77
2022/10/18 14:41:49;;;;;;;5.47;4.97;;;;;;;;;;5067124;28;20048;-76
2022/10/18 14:44:19;;;;;;;13.77;4.80;;;;;;;;;;5086108;28;20578;-76
2022/10/18 14:46:51;;;;;;;12.07;5.15;;;;;;;;;;5053464;28;20156;-75
2022/10/18 14:49:20;;;;;;;6.60;4.85;;;;;;;;;;5052867;28;20068;-76
2022/10/18 14:51:49;;;;;;;6.25;4.78;;;;;;;;;;5070344;28;20071;-76
2022/10/18 14:54:22;;;;;;;11.38;5.13;;;;;;;;;;5068864;28;20048;-75
2022/10/18 14:56:54;;;;;;;13.82;4.80;;;;;;;;;;5084139;28;20036;-76
2022/10/18 14:59:25;;;;;;;7.68;4.78;;;;;;;;;;5066825;28;20051;-76